Auburn, Massachusetts
Current Conditions -  °F | °C
As of 3:54 AM on Saturday 01 Nov 2014 (Local Time) from KORH Reporting Station
Overcast Overcast  
Wind Chill: 33°   Ceiling: 8500
Heat Index: 40°   Visibility: 10mi
Dew Point: 29°   Wind: 13mph
Humidity: 65%   Direction: 30°NNE
Pressure: 29.9"   Gusts: NA
Location:  42.18°N, 71.85°W
Report Text: KORH 010754Z AUTO 03011KT 10SM OVC085 04/M02 A2990 RMK AO2 SLP132 T00441017
Loading
Personal Weather Stations






























Interactive Weather Map
Tropical Storm Tracking
New forecast layout! Learn more

10-Day Weather Forecast

Advertisements
Track Severe Weather on mobile